createdAt,value
2016-10-29T00:00:05.415Z,0
2016-10-29T00:01:05.422Z,0
2016-10-29T00:02:05.038Z,0
2016-10-29T00:03:04.995Z,0
2016-10-29T00:04:05.267Z,0
2016-10-29T00:05:04.919Z,0
2016-10-29T00:06:04.881Z,0
2016-10-29T00:07:04.848Z,0
2016-10-29T00:08:05.143Z,0
2016-10-29T00:09:04.769Z,0
2016-10-29T00:10:05.028Z,0
2016-10-29T00:11:04.685Z,0
2016-10-29T00:12:04.946Z,0
2016-10-29T00:13:04.611Z,0
2016-10-29T00:14:04.599Z,0
2016-10-29T00:15:04.539Z,0
2016-10-29T00:16:04.496Z,0
2016-10-29T00:17:04.757Z,0
2016-10-29T00:18:04.720Z,0
2016-10-29T00:19:04.374Z,0
2016-10-29T00:20:04.640Z,0
2016-10-29T00:21:04.304Z,0
2016-10-29T00:22:04.567Z,0
2016-10-29T00:23:04.221Z,0
2016-10-29T00:24:03.922Z,0
2016-10-29T00:25:04.448Z,0
2016-10-29T00:26:03.500Z,0
2016-10-29T00:27:03.798Z,0
2016-10-29T00:28:03.741Z,0
2016-10-29T00:29:03.996Z,0
2016-10-29T00:30:03.957Z,0
2016-10-29T00:31:03.961Z,0
2016-10-29T00:32:04.190Z,0
2016-10-29T00:33:04.138Z,0
2016-10-29T00:34:03.797Z,0
2016-10-29T00:35:04.063Z,0
2016-10-29T00:36:03.721Z,0
2016-10-29T00:37:03.687Z,0
2016-10-29T00:38:03.647Z,0
2016-10-29T00:39:03.925Z,0
2016-10-29T00:40:03.563Z,0
2016-10-29T00:41:03.826Z,0
2016-10-29T00:42:03.491Z,0
2016-10-29T00:43:03.755Z,0
2016-10-29T00:44:03.408Z,0
2016-10-29T00:45:03.679Z,0
2016-10-29T00:46:03.639Z,0
2016-10-29T00:47:03.605Z,0
2016-10-29T00:48:03.562Z,0
2016-10-29T00:49:03.221Z,0
2016-10-29T00:50:03.481Z,0
2016-10-29T00:51:03.153Z,0
2016-10-29T00:52:02.803Z,0
2016-10-29T00:53:03.069Z,0
2016-10-29T00:54:03.335Z,0
2016-10-29T00:55:03.290Z,0
2016-10-29T00:56:03.250Z,0
2016-10-29T00:57:02.309Z,0
2016-10-29T00:58:02.567Z,0
2016-10-29T00:59:03.168Z,0
2016-10-29T01:00:03.101Z,0
2016-10-29T01:01:02.757Z,0
2016-10-29T01:02:02.719Z,0
2016-10-29T01:03:02.983Z,0
2016-10-29T01:04:02.948Z,0
2016-10-29T01:05:02.603Z,0
2016-10-29T01:06:02.865Z,0
2016-10-29T01:07:02.823Z,0
2016-10-29T01:08:02.490Z,0
2016-10-29T01:09:02.450Z,0
2016-10-29T01:10:02.745Z,0
2016-10-29T01:11:02.679Z,0
2016-10-29T01:12:02.642Z,0
2016-10-29T01:13:02.600Z,0
2016-10-29T01:14:02.255Z,0
2016-10-29T01:15:02.214Z,0
2016-10-29T01:16:02.494Z,0
2016-10-29T01:17:02.138Z,0
2016-10-29T01:18:02.096Z,0
2016-10-29T01:19:02.365Z,0
2016-10-29T01:20:02.322Z,0
2016-10-29T01:21:01.985Z,0
2016-10-29T01:22:01.951Z,0
2016-10-29T01:23:01.609Z,0
2016-10-29T01:24:01.866Z,0
2016-10-29T01:25:01.531Z,0
2016-10-29T01:26:02.095Z,0
2016-10-29T01:27:01.448Z,0
2016-10-29T01:28:02.048Z,0
2016-10-29T01:29:01.678Z,0
2016-10-29T01:30:01.945Z,0
2016-10-29T01:31:01.899Z,0
2016-10-29T01:32:01.591Z,0
2016-10-29T01:33:01.824Z,0
2016-10-29T01:34:01.178Z,0
2016-10-29T01:35:01.146Z,0
2016-10-29T01:36:01.111Z,0
2016-10-29T01:37:01.680Z,0
2016-10-29T01:38:01.636Z,0
2016-10-29T01:39:01.597Z,0
2016-10-29T01:40:01.248Z,0
2016-10-29T01:41:01.519Z,0
2016-10-29T01:42:01.181Z,0
2016-10-29T01:43:01.441Z,0
2016-10-29T01:44:00.797Z,0
2016-10-29T01:45:01.361Z,0
2016-10-29T01:46:01.332Z,0
2016-10-29T01:47:00.977Z,0
2016-10-29T01:48:01.250Z,0
2016-10-29T01:49:00.651Z,0
2016-10-29T01:50:00.295Z,0
2016-10-29T01:51:01.170Z,0
2016-10-29T01:52:00.791Z,0
2016-10-29T01:53:01.055Z,0
2016-10-29T01:54:00.423Z,0
2016-10-29T01:55:00.986Z,0
2016-10-29T01:56:00.333Z,0
2016-10-29T01:57:00.908Z,0
2016-10-29T01:58:00.559Z,0
2016-10-29T01:59:00.823Z,0
2016-10-29T02:00:00.487Z,0
2016-10-29T02:00:59.838Z,0
2016-10-29T02:02:00.711Z,0
2016-10-29T02:03:00.674Z,0
2016-10-29T02:04:00.029Z,0
2016-10-29T02:04:59.690Z,0
2016-10-29T02:05:59.953Z,0
2016-10-29T02:07:00.210Z,0
2016-10-29T02:07:59.875Z,0
2016-10-29T02:08:59.830Z,0
2016-10-29T02:10:00.121Z,0
2016-10-29T02:11:00.359Z,0
2016-10-29T02:12:00.325Z,0
2016-10-29T02:13:00.281Z,0
2016-10-29T02:14:00.248Z,0
2016-10-29T02:15:00.206Z,0
2016-10-29T02:16:00.167Z,0
2016-10-29T02:17:00.126Z,0
2016-10-29T02:17:59.783Z,0
2016-10-29T02:18:59.751Z,0
2016-10-29T02:19:59.402Z,0
2016-10-29T02:20:59.671Z,0
2016-10-29T02:21:59.933Z,0
2016-10-29T02:22:59.895Z,0
2016-10-29T02:23:59.875Z,0
2016-10-29T02:24:59.522Z,0
2016-10-29T02:25:59.478Z,0
2016-10-29T02:26:59.733Z,0
2016-10-29T02:27:59.695Z,0
2016-10-29T02:28:59.364Z,0
2016-10-29T02:29:59.341Z,0
2016-10-29T02:30:59.600Z,0
2016-10-29T02:31:58.642Z,0
2016-10-29T02:32:59.507Z,0
2016-10-29T02:33:59.168Z,0
2016-10-29T02:34:59.437Z,0
2016-10-29T02:35:59.400Z,0
2016-10-29T02:36:59.060Z,0
2016-10-29T02:37:59.322Z,0
2016-10-29T02:38:58.979Z,0
2016-10-29T02:39:59.271Z,0
2016-10-29T02:40:59.199Z,0
2016-10-29T02:41:58.557Z,0
2016-10-29T02:42:58.523Z,0
2016-10-29T02:43:59.085Z,0
2016-10-29T02:44:58.750Z,0
2016-10-29T02:45:58.705Z,0
2016-10-29T02:46:59.011Z,0
2016-10-29T02:47:58.324Z,0
2016-10-29T02:48:58.902Z,0
2016-10-29T02:49:58.886Z,0
2016-10-29T02:50:58.823Z,0
2016-10-29T02:51:58.514Z,0
2016-10-29T02:52:58.430Z,0
2016-10-29T02:53:58.401Z,0
2016-10-29T02:54:58.662Z,0
2016-10-29T02:55:58.356Z,0
2016-10-29T02:56:58.590Z,0
2016-10-29T02:57:58.539Z,0
2016-10-29T02:58:58.516Z,0
2016-10-29T02:59:58.508Z,0
2016-10-29T03:00:58.427Z,0
2016-10-29T03:01:58.096Z,0
2016-10-29T03:02:58.065Z,0
2016-10-29T03:03:58.313Z,0
2016-10-29T03:04:57.967Z,0
2016-10-29T03:05:58.240Z,0
2016-10-29T03:06:58.193Z,0
2016-10-29T03:07:57.563Z,0
2016-10-29T03:08:58.121Z,0
2016-10-29T03:09:58.098Z,0
2016-10-29T03:10:57.735Z,0
2016-10-29T03:11:58.040Z,0
2016-10-29T03:12:57.366Z,0
2016-10-29T03:13:57.625Z,0
2016-10-29T03:14:57.891Z,0
2016-10-29T03:15:57.845Z,0
2016-10-29T03:16:57.853Z,0
2016-10-29T03:17:57.771Z,0
2016-10-29T03:18:57.431Z,0
2016-10-29T03:19:57.406Z,0
2016-10-29T03:20:57.657Z,0
2016-10-29T03:21:57.325Z,0
2016-10-29T03:22:57.613Z,0
2016-10-29T03:23:56.934Z,0
2016-10-29T03:24:56.624Z,0
2016-10-29T03:25:57.161Z,0
2016-10-29T03:26:57.120Z,0
2016-10-29T03:27:57.083Z,0
2016-10-29T03:28:57.049Z,0
2016-10-29T03:29:57.006Z,0
2016-10-29T03:30:57.268Z,0
2016-10-29T03:31:57.236Z,0
2016-10-29T03:32:56.937Z,0
2016-10-29T03:33:57.153Z,0
2016-10-29T03:34:57.119Z,0
2016-10-29T03:35:56.778Z,0
2016-10-29T03:36:56.733Z,0
2016-10-29T03:37:57.001Z,0
2016-10-29T03:38:56.690Z,0
2016-10-29T03:39:56.914Z,0
2016-10-29T03:40:56.893Z,0
2016-10-29T03:41:56.545Z,0
2016-10-29T03:42:56.501Z,0
2016-10-29T03:43:56.466Z,0
2016-10-29T03:44:55.828Z,0
2016-10-29T03:45:56.395Z,0
2016-10-29T03:46:56.647Z,0
2016-10-29T03:47:56.611Z,0
2016-10-29T03:48:56.577Z,0
2016-10-29T03:49:56.238Z,0
2016-10-29T03:50:56.498Z,0
2016-10-29T03:51:56.453Z,0
2016-10-29T03:52:56.414Z,0
2016-10-29T03:53:56.081Z,0
2016-10-29T03:54:56.339Z,0
2016-10-29T03:55:55.998Z,0
2016-10-29T03:56:55.965Z,0
2016-10-29T03:57:55.919Z,0
2016-10-29T03:58:55.885Z,0
2016-10-29T03:59:55.854Z,0
2016-10-29T04:00:55.804Z,0
2016-10-29T04:01:55.779Z,0
2016-10-29T04:02:56.033Z,0
2016-10-29T04:03:55.997Z,0
2016-10-29T04:04:55.660Z,0
2016-10-29T04:05:55.952Z,0
2016-10-29T04:06:55.605Z,0
2016-10-29T04:07:55.536Z,0
2016-10-29T04:08:55.497Z,0
2016-10-29T04:09:55.480Z,0
2016-10-29T04:10:55.118Z,0
2016-10-29T04:11:55.380Z,0
2016-10-29T04:12:55.345Z,0
2016-10-29T04:13:55.612Z,0
2016-10-29T04:14:55.562Z,0
2016-10-29T04:15:55.228Z,0
2016-10-29T04:16:55.490Z,0
2016-10-29T04:17:55.489Z,0
2016-10-29T04:18:55.405Z,0
2016-10-29T04:19:55.369Z,0
2016-10-29T04:20:55.026Z,0
2016-10-29T04:21:54.989Z,0
2016-10-29T04:22:54.951Z,0
2016-10-29T04:23:54.914Z,0
2016-10-29T04:24:55.182Z,0
2016-10-29T04:25:55.182Z,0
2016-10-29T04:26:55.109Z,0
2016-10-29T04:27:55.056Z,0
2016-10-29T04:28:54.721Z,0
2016-10-29T04:29:54.990Z,0
2016-10-29T04:30:54.947Z,0
2016-10-29T04:31:54.641Z,0
2016-10-29T04:32:54.867Z,0
2016-10-29T04:33:54.522Z,0
2016-10-29T04:34:54.489Z,0
2016-10-29T04:35:54.748Z,0
2016-10-29T04:36:54.708Z,0
2016-10-29T04:37:54.368Z,0
2016-10-29T04:38:54.330Z,0
2016-10-29T04:39:54.593Z,0
2016-10-29T04:40:54.559Z,0
2016-10-29T04:41:54.214Z,0
2016-10-29T04:42:54.208Z,0
2016-10-29T04:43:54.444Z,0
2016-10-29T04:44:54.102Z,0
2016-10-29T04:45:54.362Z,0
2016-10-29T04:46:54.341Z,0
2016-10-29T04:47:53.990Z,0
2016-10-29T04:48:53.646Z,0
2016-10-29T04:49:53.906Z,0
2016-10-29T04:50:54.186Z,0
2016-10-29T04:51:53.829Z,0
2016-10-29T04:52:53.486Z,0
2016-10-29T04:53:54.059Z,0
2016-10-29T04:54:53.746Z,0
2016-10-29T04:55:53.983Z,0
2016-10-29T04:56:53.625Z,0
2016-10-29T04:57:53.593Z,0
2016-10-29T04:58:53.255Z,0
2016-10-29T04:59:53.813Z,0
2016-10-29T05:00:53.775Z,0
2016-10-29T05:01:53.135Z,0
2016-10-29T05:02:53.400Z,0
2016-10-29T05:03:53.660Z,0
2016-10-29T05:04:53.321Z,0
2016-10-29T05:05:53.586Z,0
2016-10-29T05:06:53.550Z,0
2016-10-29T05:07:53.211Z,0
2016-10-29T05:08:52.878Z,0
2016-10-29T05:09:53.428Z,0
2016-10-29T05:10:53.393Z,0
2016-10-29T05:11:53.352Z,0
2016-10-29T05:12:53.008Z,0
2016-10-29T05:13:53.278Z,0
2016-10-29T05:14:53.234Z,0
2016-10-29T05:15:53.193Z,0
2016-10-29T05:16:53.152Z,0
2016-10-29T05:17:52.820Z,0
2016-10-29T05:18:52.819Z,0
2016-10-29T05:19:52.737Z,0
2016-10-29T05:20:53.002Z,0
2016-10-29T05:21:52.965Z,0
2016-10-29T05:22:52.622Z,0
2016-10-29T05:23:52.882Z,0
2016-10-29T05:24:52.848Z,0
2016-10-29T05:25:52.548Z,0
2016-10-29T05:26:52.168Z,0
2016-10-29T05:27:52.733Z,0
2016-10-29T05:28:52.097Z,0
2016-10-29T05:29:52.049Z,0
2016-10-29T05:30:52.619Z,0
2016-10-29T05:31:52.573Z,0
2016-10-29T05:32:52.276Z,0
2016-10-29T05:33:52.199Z,0
2016-10-29T05:34:52.195Z,0
2016-10-29T05:35:52.428Z,0
2016-10-29T05:36:52.411Z,0
2016-10-29T05:37:52.351Z,0
2016-10-29T05:38:52.043Z,0
2016-10-29T05:39:52.269Z,0
2016-10-29T05:40:52.232Z,0
2016-10-29T05:41:52.185Z,0
2016-10-29T05:42:51.847Z,0
2016-10-29T05:43:52.111Z,0
2016-10-29T05:44:51.768Z,0
2016-10-29T05:45:52.036Z,0
2016-10-29T05:46:52.034Z,0
2016-10-29T05:47:51.954Z,0
2016-10-29T05:48:51.918Z,0
2016-10-29T05:49:51.572Z,0
2016-10-29T05:50:51.533Z,0
2016-10-29T05:51:51.493Z,0
2016-10-29T05:52:51.763Z,0
2016-10-29T05:53:51.151Z,0
2016-10-29T05:54:51.679Z,0
2016-10-29T05:55:51.638Z,0
2016-10-29T05:56:51.601Z,0
2016-10-29T05:57:50.957Z,0
2016-10-29T05:58:51.557Z,0
2016-10-29T05:59:51.501Z,0
2016-10-29T06:00:50.843Z,0
2016-10-29T06:01:51.110Z,0
2016-10-29T06:02:51.067Z,0
2016-10-29T06:03:51.367Z,0
2016-10-29T06:04:50.992Z,0
2016-10-29T06:05:51.251Z,0
2016-10-29T06:06:50.915Z,0
2016-10-29T06:07:50.875Z,0
2016-10-29T06:08:50.538Z,0
2016-10-29T06:09:50.791Z,0
2016-10-29T06:10:50.760Z,0
2016-10-29T06:11:50.421Z,0
2016-10-29T06:12:50.717Z,0
2016-10-29T06:13:50.635Z,0
2016-10-29T06:14:50.613Z,0
2016-10-29T06:15:50.868Z,0
2016-10-29T06:16:50.523Z,5
2016-10-29T06:17:50.515Z,5
2016-10-29T06:18:50.450Z,5
2016-10-29T06:19:50.718Z,5
2016-10-29T06:20:50.669Z,5
2016-10-29T06:21:50.631Z,5
2016-10-29T06:22:50.597Z,5
2016-10-29T06:23:50.286Z,5
2016-10-29T06:24:49.918Z,5
2016-10-29T06:25:49.876Z,5
2016-10-29T06:26:50.440Z,10
2016-10-29T06:27:50.434Z,10
2016-10-29T06:28:50.060Z,10
2016-10-29T06:29:50.026Z,10
2016-10-29T06:30:49.982Z,10
2016-10-29T06:31:49.641Z,10
2016-10-29T06:32:49.911Z,10
2016-10-29T06:33:50.221Z,10
2016-10-29T06:34:49.836Z,15
2016-10-29T06:35:50.090Z,15
2016-10-29T06:36:50.053Z,15
2016-10-29T06:37:49.721Z,15
2016-10-29T06:38:49.677Z,15
2016-10-29T06:39:49.945Z,15
2016-10-29T06:40:49.593Z,15
2016-10-29T06:41:49.859Z,20
2016-10-29T06:42:49.847Z,20
2016-10-29T06:43:49.484Z,20
2016-10-29T06:44:49.449Z,25
2016-10-29T06:45:49.403Z,25
2016-10-29T06:46:49.668Z,25
2016-10-29T06:47:49.628Z,25
2016-10-29T06:48:49.284Z,25
2016-10-29T06:49:49.550Z,25
2016-10-29T06:50:49.513Z,30
2016-10-29T06:51:49.167Z,30
2016-10-29T06:52:49.441Z,35
2016-10-29T06:53:49.093Z,35
2016-10-29T06:54:49.364Z,35
2016-10-29T06:55:49.008Z,35
2016-10-29T06:56:49.280Z,35
2016-10-29T06:57:49.240Z,35
2016-10-29T06:58:48.896Z,35
2016-10-29T06:59:49.161Z,35
2016-10-29T07:00:48.827Z,40
2016-10-29T07:01:49.084Z,40
2016-10-29T07:02:48.740Z,45
2016-10-29T07:03:48.700Z,50
2016-10-29T07:04:48.970Z,50
2016-10-29T07:05:48.926Z,50
2016-10-29T07:06:48.890Z,50
2016-10-29T07:07:49.216Z,45
2016-10-29T07:08:48.505Z,45
2016-10-29T07:09:48.783Z,45
2016-10-29T07:10:48.735Z,50
2016-10-29T07:11:48.701Z,55
2016-10-29T07:12:48.658Z,55
2016-10-29T07:13:48.620Z,55
2016-10-29T07:14:48.586Z,65
2016-10-29T07:15:48.573Z,60
2016-10-29T07:16:48.200Z,60
2016-10-29T07:17:48.167Z,65
2016-10-29T07:18:48.426Z,70
2016-10-29T07:19:48.086Z,70
2016-10-29T07:20:48.351Z,75
2016-10-29T07:21:48.316Z,80
2016-10-29T07:22:47.974Z,80
2016-10-29T07:23:47.631Z,80
2016-10-29T07:24:47.891Z,80
2016-10-29T07:25:48.162Z,80
2016-10-29T07:26:48.120Z,80
2016-10-29T07:27:48.095Z,75
2016-10-29T07:28:47.443Z,75
2016-10-29T07:29:48.016Z,75
2016-10-29T07:30:47.968Z,80
2016-10-29T07:31:47.627Z,85
2016-10-29T07:32:47.898Z,95
2016-10-29T07:33:47.552Z,100
2016-10-29T07:34:47.511Z,105
2016-10-29T07:35:47.786Z,110
2016-10-29T07:36:47.433Z,110
2016-10-29T07:37:47.401Z,115
2016-10-29T07:38:47.367Z,115
2016-10-29T07:39:47.335Z,115
2016-10-29T07:40:47.294Z,115
2016-10-29T07:41:47.258Z,115
2016-10-29T07:42:47.514Z,115
2016-10-29T07:43:46.867Z,115
2016-10-29T07:44:47.441Z,115
2016-10-29T07:45:47.102Z,115
2016-10-29T07:46:47.364Z,115
2016-10-29T07:47:47.321Z,110
2016-10-29T07:48:46.985Z,105
2016-10-29T07:49:46.960Z,100
2016-10-29T07:50:47.217Z,100
2016-10-29T07:51:47.220Z,100
2016-10-29T07:52:46.842Z,100
2016-10-29T07:53:46.798Z,105
2016-10-29T07:54:46.454Z,110
2016-10-29T07:55:46.726Z,115
2016-10-29T07:56:46.992Z,115
2016-10-29T07:57:46.655Z,110
2016-10-29T07:58:46.609Z,105
2016-10-29T07:59:46.879Z,100
2016-10-29T08:00:46.839Z,105
2016-10-29T08:01:46.499Z,115
2016-10-29T08:02:46.468Z,120
2016-10-29T08:03:46.425Z,125
2016-10-29T08:04:46.694Z,120
2016-10-29T08:05:46.668Z,115
2016-10-29T08:06:46.319Z,110
2016-10-29T08:07:45.972Z,105
2016-10-29T08:08:46.539Z,105
2016-10-29T08:09:46.511Z,115
2016-10-29T08:10:46.166Z,120
2016-10-29T08:11:46.424Z,125
2016-10-29T08:12:46.099Z,125
2016-10-29T08:13:46.051Z,125
2016-10-29T08:14:46.350Z,125
2016-10-29T08:15:45.685Z,120
2016-10-29T08:16:45.943Z,115
2016-10-29T08:17:45.902Z,115
2016-10-29T08:18:46.171Z,115
2016-10-29T08:19:45.526Z,120
2016-10-29T08:20:46.097Z,125
2016-10-29T08:21:45.455Z,130
2016-10-29T08:22:46.018Z,130
2016-10-29T08:23:45.985Z,135
2016-10-29T08:24:45.946Z,135
2016-10-29T08:25:45.908Z,135
2016-10-29T08:26:45.873Z,130
2016-10-29T08:27:45.842Z,125
2016-10-29T08:28:45.499Z,125
2016-10-29T08:29:45.461Z,125
2016-10-29T08:30:45.724Z,130
2016-10-29T08:31:45.694Z,140
2016-10-29T08:32:44.742Z,160
2016-10-29T08:33:45.313Z,185
2016-10-29T08:34:45.281Z,200
2016-10-29T08:35:45.540Z,205
2016-10-29T08:36:45.508Z,200
2016-10-29T08:37:45.166Z,190
2016-10-29T08:38:45.139Z,180
2016-10-29T08:39:45.396Z,170
2016-10-29T08:40:45.363Z,180
2016-10-29T08:41:45.323Z,195
2016-10-29T08:42:44.983Z,210
2016-10-29T08:43:44.647Z,190
2016-10-29T08:44:44.651Z,190
2016-10-29T08:45:44.873Z,195
2016-10-29T08:46:44.840Z,210
2016-10-29T08:47:45.102Z,210
2016-10-29T08:48:45.070Z,220
2016-10-29T08:49:45.029Z,230
2016-10-29T08:50:44.698Z,235
2016-10-29T08:51:44.659Z,230
2016-10-29T08:52:44.926Z,230
2016-10-29T08:53:44.931Z,230
2016-10-29T08:54:44.856Z,245
2016-10-29T08:55:44.510Z,275
2016-10-29T08:56:44.785Z,315
2016-10-29T08:57:44.483Z,345
2016-10-29T08:58:44.405Z,350
2016-10-29T08:59:44.365Z,325
2016-10-29T09:00:44.330Z,305
2016-10-29T09:01:44.596Z,285
2016-10-29T09:02:44.264Z,275
2016-10-29T09:03:44.531Z,270
2016-10-29T09:04:44.188Z,255
2016-10-29T09:05:44.463Z,225
2016-10-29T09:06:44.424Z,195
2016-10-29T09:07:44.385Z,180
2016-10-29T09:08:44.348Z,165
2016-10-29T09:09:44.020Z,155
2016-10-29T09:10:43.715Z,150
2016-10-29T09:11:44.279Z,155
2016-10-29T09:12:44.215Z,160
2016-10-29T09:13:43.885Z,160
2016-10-29T09:14:44.176Z,150
2016-10-29T09:15:44.100Z,140
2016-10-29T09:16:44.084Z,130
2016-10-29T09:17:43.737Z,135
2016-10-29T09:18:43.995Z,140
2016-10-29T09:19:43.669Z,155
2016-10-29T09:20:43.923Z,155
2016-10-29T09:21:43.889Z,155
2016-10-29T09:22:43.565Z,155
2016-10-29T09:23:43.515Z,160
2016-10-29T09:24:43.882Z,165
2016-10-29T09:25:43.749Z,170
2016-10-29T09:26:43.418Z,165
2016-10-29T09:27:43.065Z,165
2016-10-29T09:28:43.339Z,180
2016-10-29T09:29:43.303Z,185
2016-10-29T09:30:43.271Z,175
2016-10-29T09:31:42.652Z,170
2016-10-29T09:32:43.506Z,170
2016-10-29T09:33:43.458Z,190
2016-10-29T09:34:43.122Z,200
2016-10-29T09:35:43.090Z,190
2016-10-29T09:36:43.398Z,175
2016-10-29T09:37:42.419Z,165
2016-10-29T09:38:42.990Z,155
2016-10-29T09:39:42.948Z,155
2016-10-29T09:40:43.217Z,160
2016-10-29T09:41:42.876Z,160
2016-10-29T09:42:43.148Z,160
2016-10-29T09:43:43.120Z,155
2016-10-29T09:44:42.506Z,150
2016-10-29T09:45:42.731Z,150
2016-10-29T09:46:42.702Z,150
2016-10-29T09:47:43.012Z,150
2016-10-29T09:48:42.625Z,150
2016-10-29T09:49:42.892Z,150
2016-10-29T09:50:42.856Z,150
2016-10-29T09:51:42.521Z,150
2016-10-29T09:52:42.493Z,150
2016-10-29T09:53:42.458Z,155
2016-10-29T09:54:42.714Z,160
2016-10-29T09:55:42.378Z,165
2016-10-29T09:56:42.347Z,165
2016-10-29T09:57:42.305Z,155
2016-10-29T09:58:41.974Z,155
2016-10-29T09:59:42.228Z,155
2016-10-29T10:00:42.201Z,155
2016-10-29T10:01:42.499Z,155
2016-10-29T10:02:42.427Z,150
2016-10-29T10:03:42.386Z,150
2016-10-29T10:04:42.365Z,155
2016-10-29T10:05:42.325Z,160
2016-10-29T10:06:42.161Z,160
2016-10-29T10:07:41.949Z,155
2016-10-29T10:08:42.218Z,155
2016-10-29T10:09:42.184Z,150
2016-10-29T10:10:41.842Z,150
2016-10-29T10:11:42.112Z,155
2016-10-29T10:12:42.068Z,165
2016-10-29T10:13:42.030Z,175
2016-10-29T10:14:41.994Z,180
2016-10-29T10:15:41.698Z,180
2016-10-29T10:16:41.630Z,180
2016-10-29T10:17:41.592Z,185
2016-10-29T10:18:41.277Z,185
2016-10-29T10:19:41.833Z,180
2016-10-29T10:20:41.787Z,180
2016-10-29T10:21:41.756Z,170
2016-10-29T10:22:41.719Z,165
2016-10-29T10:23:41.378Z,165
2016-10-29T10:24:41.344Z,170
2016-10-29T10:25:41.307Z,170
2016-10-29T10:26:41.296Z,175
2016-10-29T10:27:41.544Z,180
2016-10-29T10:28:41.495Z,175
2016-10-29T10:29:41.466Z,170
2016-10-29T10:30:41.426Z,165
2016-10-29T10:31:41.092Z,160
2016-10-29T10:32:40.759Z,155
2016-10-29T10:33:41.328Z,155
2016-10-29T10:34:41.289Z,155
2016-10-29T10:35:40.947Z,155
2016-10-29T10:36:40.933Z,150
2016-10-29T10:37:40.873Z,155
2016-10-29T10:38:40.841Z,150
2016-10-29T10:39:40.503Z,155
2016-10-29T10:40:40.769Z,155
2016-10-29T10:41:41.041Z,160
2016-10-29T10:42:40.694Z,160
2016-10-29T10:43:40.658Z,165
2016-10-29T10:44:40.622Z,165
2016-10-29T10:45:40.590Z,165
2016-10-29T10:46:39.953Z,165
2016-10-29T10:47:40.820Z,165
2016-10-29T10:48:40.222Z,165
2016-10-29T10:49:40.445Z,165
2016-10-29T10:50:40.404Z,160
2016-10-29T10:51:40.374Z,160
2016-10-29T10:52:40.641Z,160
2016-10-29T10:53:40.603Z,160
2016-10-29T10:54:40.265Z,155
2016-10-29T10:55:39.923Z,155
2016-10-29T10:56:40.502Z,155
2016-10-29T10:57:40.459Z,160
2016-10-29T10:58:40.459Z,165
2016-10-29T10:59:40.083Z,170
2016-10-29T11:00:40.355Z,170
2016-10-29T11:01:40.312Z,170
2016-10-29T11:02:40.280Z,170
2016-10-29T11:03:39.948Z,170
2016-10-29T11:04:40.211Z,170
2016-10-29T11:05:40.175Z,170
2016-10-29T11:06:40.141Z,170
2016-10-29T11:07:39.803Z,170
2016-10-29T11:08:39.790Z,175
2016-10-29T11:09:40.029Z,175
2016-10-29T11:10:39.999Z,185
2016-10-29T11:11:39.664Z,185
2016-10-29T11:12:39.062Z,190
2016-10-29T11:13:39.578Z,190
2016-10-29T11:14:39.556Z,190
2016-10-29T11:15:39.246Z,190
2016-10-29T11:16:39.179Z,185
2016-10-29T11:17:39.178Z,180
2016-10-29T11:18:39.413Z,175
2016-10-29T11:19:39.677Z,175
2016-10-29T11:20:39.036Z,170
2016-10-29T11:21:39.003Z,180
2016-10-29T11:22:39.615Z,180
2016-10-29T11:23:38.933Z,185
2016-10-29T11:24:39.497Z,185
2016-10-29T11:25:39.461Z,185
2016-10-29T11:26:39.126Z,190
2016-10-29T11:27:39.092Z,190
2016-10-29T11:28:39.055Z,195
2016-10-29T11:29:39.328Z,190
2016-10-29T11:30:39.279Z,190
2016-10-29T11:31:38.646Z,190
2016-10-29T11:32:38.916Z,190
2016-10-29T11:33:39.179Z,190
2016-10-29T11:34:39.153Z,185
2016-10-29T11:35:38.813Z,185
2016-10-29T11:36:38.771Z,185
2016-10-29T11:37:38.746Z,185
2016-10-29T11:38:38.998Z,190
2016-10-29T11:39:38.779Z,190
2016-10-29T11:40:38.668Z,190
2016-10-29T11:41:38.306Z,195
2016-10-29T11:42:38.579Z,195
2016-10-29T11:43:38.546Z,195
2016-10-29T11:44:38.492Z,200
2016-10-29T11:45:38.455Z,200
2016-10-29T11:46:38.747Z,210
2016-10-29T11:47:38.386Z,220
2016-10-29T11:48:38.651Z,220
2016-10-29T11:49:38.313Z,220
2016-10-29T11:50:38.280Z,215
2016-10-29T11:51:38.550Z,215
2016-10-29T11:52:38.510Z,205
2016-10-29T11:53:38.175Z,200
2016-10-29T11:54:38.137Z,205
2016-10-29T11:55:38.104Z,205
2016-10-29T11:56:38.084Z,205
2016-10-29T11:57:38.339Z,210
2016-10-29T11:58:38.336Z,205
2016-10-29T11:59:37.966Z,210
2016-10-29T12:00:37.634Z,210
2016-10-29T12:01:37.594Z,205
2016-10-29T12:02:37.853Z,200
2016-10-29T12:03:38.158Z,200
2016-10-29T12:04:37.787Z,200
2016-10-29T12:05:37.758Z,195
2016-10-29T12:06:37.717Z,200
2016-10-29T12:07:37.693Z,200
2016-10-29T12:08:37.658Z,200
2016-10-29T12:09:37.322Z,205
2016-10-29T12:10:37.880Z,215
2016-10-29T12:11:37.588Z,215
2016-10-29T12:12:36.902Z,225
2016-10-29T12:13:37.472Z,235
2016-10-29T12:14:37.435Z,240
2016-10-29T12:15:37.703Z,235
2016-10-29T12:16:37.669Z,235
2016-10-29T12:17:37.629Z,250
2016-10-29T12:18:37.294Z,245
2016-10-29T12:19:37.563Z,245
2016-10-29T12:20:37.532Z,240
2016-10-29T12:21:37.498Z,235
2016-10-29T12:22:37.195Z,245
2016-10-29T12:23:37.123Z,265
2016-10-29T12:24:36.782Z,275
2016-10-29T12:25:36.749Z,270
2016-10-29T12:26:37.343Z,270
2016-10-29T12:27:37.322Z,265
2016-10-29T12:28:36.956Z,260
2016-10-29T12:29:37.214Z,245
2016-10-29T12:30:37.182Z,235
2016-10-29T12:31:36.841Z,230
2016-10-29T12:32:37.115Z,225
2016-10-29T12:33:36.172Z,210
2016-10-29T12:34:37.044Z,230
2016-10-29T12:35:37.004Z,230
2016-10-29T12:36:36.965Z,225
2016-10-29T12:37:36.660Z,245
2016-10-29T12:38:36.602Z,260
2016-10-29T12:39:36.877Z,260
2016-10-29T12:40:36.840Z,260
2016-10-29T12:41:36.493Z,245
2016-10-29T12:42:36.765Z,240
2016-10-29T12:43:36.741Z,255
2016-10-29T12:44:36.700Z,265
2016-10-29T12:45:36.354Z,275
2016-10-29T12:46:36.321Z,285
2016-10-29T12:47:36.592Z,270
2016-10-29T12:48:35.957Z,270
2016-10-29T12:49:36.274Z,270
2016-10-29T12:50:36.185Z,270
2016-10-29T12:51:36.161Z,275
2016-10-29T12:52:36.125Z,285
2016-10-29T12:53:36.392Z,285
2016-10-29T12:54:36.058Z,295
2016-10-29T12:55:35.716Z,290
2016-10-29T12:56:36.284Z,280
2016-10-29T12:57:35.944Z,275
2016-10-29T12:58:35.923Z,275
2016-10-29T12:59:35.883Z,280
2016-10-29T13:00:35.852Z,260
2016-10-29T13:01:36.115Z,250
2016-10-29T13:02:35.777Z,265
2016-10-29T13:03:36.101Z,270
2016-10-29T13:04:36.014Z,255
2016-10-29T13:05:35.725Z,245
2016-10-29T13:06:35.345Z,250
2016-10-29T13:07:35.914Z,230
2016-10-29T13:08:35.878Z,220
2016-10-29T13:09:35.546Z,210
2016-10-29T13:10:35.523Z,200
2016-10-29T13:11:35.474Z,195
2016-10-29T13:12:35.173Z,190
2016-10-29T13:13:35.709Z,185
2016-10-29T13:14:35.381Z,175
2016-10-29T13:15:35.340Z,170
2016-10-29T13:16:34.710Z,165
2016-10-29T13:17:35.273Z,160
2016-10-29T13:18:35.541Z,165
2016-10-29T13:19:35.206Z,165
2016-10-29T13:20:35.174Z,175
2016-10-29T13:21:35.148Z,180
2016-10-29T13:22:35.102Z,180
2016-10-29T13:23:35.382Z,165
2016-10-29T13:24:35.384Z,165
2016-10-29T13:25:35.309Z,170
2016-10-29T13:26:35.273Z,185
2016-10-29T13:27:34.942Z,180
2016-10-29T13:28:35.251Z,175
2016-10-29T13:29:34.871Z,175
2016-10-29T13:30:35.139Z,175
2016-10-29T13:31:35.112Z,170
2016-10-29T13:32:34.810Z,170
2016-10-29T13:33:34.738Z,170
2016-10-29T13:34:34.702Z,160
2016-10-29T13:35:34.663Z,150
2016-10-29T13:36:34.357Z,135
2016-10-29T13:37:34.905Z,135
2016-10-29T13:38:34.880Z,140
2016-10-29T13:39:34.528Z,135
2016-10-29T13:40:34.795Z,130
2016-10-29T13:41:34.481Z,125
2016-10-29T13:42:34.730Z,125
2016-10-29T13:43:34.097Z,125
2016-10-29T13:44:34.669Z,125
2016-10-29T13:45:34.636Z,125
2016-10-29T13:46:33.996Z,125
2016-10-29T13:47:34.289Z,125
2016-10-29T13:48:33.975Z,120
2016-10-29T13:49:33.893Z,120
2016-10-29T13:50:34.470Z,120
2016-10-29T13:51:34.125Z,115
2016-10-29T13:52:34.392Z,115
2016-10-29T13:53:34.374Z,110
2016-10-29T13:54:34.023Z,105
2016-10-29T13:55:33.987Z,100
2016-10-29T13:56:33.655Z,100
2016-10-29T13:57:33.917Z,100
2016-10-29T13:58:34.194Z,95
2016-10-29T13:59:33.548Z,90
2016-10-29T14:00:33.223Z,85
2016-10-29T14:01:33.789Z,85
2016-10-29T14:02:33.755Z,85
2016-10-29T14:03:34.019Z,85
2016-10-29T14:04:33.376Z,80
2016-10-29T14:05:33.954Z,75
2016-10-29T14:06:33.605Z,70
2016-10-29T14:07:33.879Z,70
2016-10-29T14:08:33.252Z,70
2016-10-29T14:09:33.822Z,70
2016-10-29T14:10:33.475Z,65
2016-10-29T14:11:33.139Z,65
2016-10-29T14:12:33.404Z,60
2016-10-29T14:13:33.375Z,60
2016-10-29T14:14:33.644Z,60